sensor_id;sensor_type;location;lat;lon;timestamp;P1;durP1;ratioP1;P2;durP2;ratioP2
79578;SDS011;69051;52.406;5.280;2023-06-14T00:02:14;12.48;;;3.53;;
79578;SDS011;69051;52.406;5.280;2023-06-14T00:04:42;7.93;;;3.20;;
79578;SDS011;69051;52.406;5.280;2023-06-14T00:07:09;9.15;;;3.30;;
79578;SDS011;69051;52.406;5.280;2023-06-14T00:09:39;8.80;;;3.25;;
79578;SDS011;69051;52.406;5.280;2023-06-14T00:12:08;8.45;;;3.05;;
79578;SDS011;69051;52.406;5.280;2023-06-14T00:14:35;9.20;;;3.58;;
79578;SDS011;69051;52.406;5.280;2023-06-14T00:17:01;9.07;;;3.45;;
79578;SDS011;69051;52.406;5.280;2023-06-14T00:19:28;8.63;;;3.20;;
79578;SDS011;69051;52.406;5.280;2023-06-14T00:21:56;10.02;;;2.97;;
79578;SDS011;69051;52.406;5.280;2023-06-14T00:24:24;11.32;;;3.33;;
79578;SDS011;69051;52.406;5.280;2023-06-14T00:26:50;8.40;;;3.30;;
79578;SDS011;69051;52.406;5.280;2023-06-14T00:29:17;7.28;;;3.13;;
79578;SDS011;69051;52.406;5.280;2023-06-14T00:31:43;9.25;;;3.08;;
79578;SDS011;69051;52.406;5.280;2023-06-14T00:34:10;7.80;;;3.33;;
79578;SDS011;69051;52.406;5.280;2023-06-14T00:36:36;16.17;;;3.67;;
79578;SDS011;69051;52.406;5.280;2023-06-14T00:39:03;12.90;;;4.00;;
79578;SDS011;69051;52.406;5.280;2023-06-14T00:41:29;15.00;;;2.80;;
79578;SDS011;69051;52.406;5.280;2023-06-14T00:43:56;9.07;;;3.40;;
79578;SDS011;69051;52.406;5.280;2023-06-14T00:46:23;10.30;;;3.30;;
79578;SDS011;69051;52.406;5.280;2023-06-14T00:48:49;12.65;;;3.10;;
79578;SDS011;69051;52.406;5.280;2023-06-14T00:51:16;12.10;;;3.33;;
79578;SDS011;69051;52.406;5.280;2023-06-14T00:53:43;9.85;;;2.90;;
79578;SDS011;69051;52.406;5.280;2023-06-14T00:56:13;14.82;;;2.85;;
79578;SDS011;69051;52.406;5.280;2023-06-14T00:58:41;8.85;;;3.17;;
79578;SDS011;69051;52.406;5.280;2023-06-14T01:01:09;8.90;;;2.90;;
79578;SDS011;69051;52.406;5.280;2023-06-14T01:03:36;11.50;;;2.72;;
79578;SDS011;69051;52.406;5.280;2023-06-14T01:06:05;7.57;;;2.78;;
79578;SDS011;69051;52.406;5.280;2023-06-14T01:08:50;9.50;;;3.17;;
79578;SDS011;69051;52.406;5.280;2023-06-14T01:11:54;8.13;;;3.20;;
79578;SDS011;69051;52.406;5.280;2023-06-14T01:14:27;9.63;;;3.15;;
79578;SDS011;69051;52.406;5.280;2023-06-14T01:16:54;8.25;;;2.83;;
79578;SDS011;69051;52.406;5.280;2023-06-14T01:19:21;7.97;;;2.75;;
79578;SDS011;69051;52.406;5.280;2023-06-14T01:21:48;9.07;;;3.03;;
79578;SDS011;69051;52.406;5.280;2023-06-14T01:24:17;8.57;;;2.72;;
79578;SDS011;69051;52.406;5.280;2023-06-14T01:26:45;6.72;;;2.85;;
79578;SDS011;69051;52.406;5.280;2023-06-14T01:29:17;10.05;;;2.90;;
79578;SDS011;69051;52.406;5.280;2023-06-14T01:31:45;11.88;;;2.75;;
79578;SDS011;69051;52.406;5.280;2023-06-14T01:34:11;10.02;;;2.83;;
79578;SDS011;69051;52.406;5.280;2023-06-14T01:36:38;14.50;;;2.83;;
79578;SDS011;69051;52.406;5.280;2023-06-14T01:39:07;9.90;;;2.40;;
79578;SDS011;69051;52.406;5.280;2023-06-14T01:41:34;12.60;;;3.03;;
79578;SDS011;69051;52.406;5.280;2023-06-14T01:44:01;6.38;;;2.72;;
79578;SDS011;69051;52.406;5.280;2023-06-14T01:46:28;12.15;;;2.85;;
79578;SDS011;69051;52.406;5.280;2023-06-14T01:48:55;6.90;;;2.42;;
79578;SDS011;69051;52.406;5.280;2023-06-14T01:51:21;8.73;;;2.65;;
79578;SDS011;69051;52.406;5.280;2023-06-14T01:53:47;12.45;;;3.42;;
79578;SDS011;69051;52.406;5.280;2023-06-14T01:56:14;8.90;;;3.00;;
79578;SDS011;69051;52.406;5.280;2023-06-14T01:58:41;7.65;;;2.80;;
79578;SDS011;69051;52.406;5.280;2023-06-14T02:01:07;5.63;;;2.65;;
79578;SDS011;69051;52.406;5.280;2023-06-14T02:03:34;8.57;;;3.08;;
79578;SDS011;69051;52.406;5.280;2023-06-14T02:06:01;6.20;;;2.60;;
79578;SDS011;69051;52.406;5.280;2023-06-14T02:08:28;8.18;;;2.95;;
79578;SDS011;69051;52.406;5.280;2023-06-14T02:10:54;10.18;;;3.17;;
79578;SDS011;69051;52.406;5.280;2023-06-14T02:13:21;9.48;;;2.65;;
79578;SDS011;69051;52.406;5.280;2023-06-14T02:15:47;10.25;;;2.90;;
79578;SDS011;69051;52.406;5.280;2023-06-14T02:18:17;10.75;;;2.97;;
79578;SDS011;69051;52.406;5.280;2023-06-14T02:20:44;8.73;;;2.92;;
79578;SDS011;69051;52.406;5.280;2023-06-14T02:23:10;11.05;;;3.10;;
79578;SDS011;69051;52.406;5.280;2023-06-14T02:25:37;10.77;;;3.30;;
79578;SDS011;69051;52.406;5.280;2023-06-14T02:28:03;6.70;;;2.88;;
79578;SDS011;69051;52.406;5.280;2023-06-14T02:30:30;12.68;;;3.10;;
79578;SDS011;69051;52.406;5.280;2023-06-14T02:32:57;9.70;;;3.22;;
79578;SDS011;69051;52.406;5.280;2023-06-14T02:35:24;15.57;;;2.65;;
79578;SDS011;69051;52.406;5.280;2023-06-14T02:37:52;6.82;;;2.58;;
79578;SDS011;69051;52.406;5.280;2023-06-14T02:40:19;12.43;;;2.90;;
79578;SDS011;69051;52.406;5.280;2023-06-14T02:42:46;10.00;;;3.13;;
79578;SDS011;69051;52.406;5.280;2023-06-14T02:45:12;14.57;;;2.80;;
79578;SDS011;69051;52.406;5.280;2023-06-14T02:47:39;10.68;;;3.75;;
79578;SDS011;69051;52.406;5.280;2023-06-14T02:50:06;11.18;;;2.55;;
79578;SDS011;69051;52.406;5.280;2023-06-14T02:52:34;7.45;;;2.83;;
79578;SDS011;69051;52.406;5.280;2023-06-14T02:55:01;9.07;;;2.88;;
79578;SDS011;69051;52.406;5.280;2023-06-14T02:57:27;9.75;;;2.88;;
79578;SDS011;69051;52.406;5.280;2023-06-14T02:59:54;8.15;;;2.80;;
79578;SDS011;69051;52.406;5.280;2023-06-14T03:02:21;8.80;;;2.90;;
79578;SDS011;69051;52.406;5.280;2023-06-14T03:04:47;7.05;;;2.95;;
79578;SDS011;69051;52.406;5.280;2023-06-14T03:07:14;9.63;;;2.63;;
79578;SDS011;69051;52.406;5.280;2023-06-14T03:09:45;9.57;;;3.22;;
79578;SDS011;69051;52.406;5.280;2023-06-14T03:12:13;11.88;;;3.15;;
79578;SDS011;69051;52.406;5.280;2023-06-14T03:14:39;9.25;;;3.00;;
79578;SDS011;69051;52.406;5.280;2023-06-14T03:17:06;12.82;;;3.17;;
79578;SDS011;69051;52.406;5.280;2023-06-14T03:19:34;9.48;;;2.80;;
79578;SDS011;69051;52.406;5.280;2023-06-14T03:22:01;9.10;;;3.10;;
79578;SDS011;69051;52.406;5.280;2023-06-14T03:24:28;9.73;;;3.10;;
79578;SDS011;69051;52.406;5.280;2023-06-14T03:26:55;8.55;;;3.40;;
79578;SDS011;69051;52.406;5.280;2023-06-14T03:29:23;8.07;;;2.90;;
79578;SDS011;69051;52.406;5.280;2023-06-14T03:31:56;6.60;;;2.75;;
79578;SDS011;69051;52.406;5.280;2023-06-14T03:34:26;11.98;;;3.47;;
79578;SDS011;69051;52.406;5.280;2023-06-14T03:36:53;6.45;;;2.53;;
79578;SDS011;69051;52.406;5.280;2023-06-14T03:39:20;6.22;;;2.25;;
79578;SDS011;69051;52.406;5.280;2023-06-14T03:41:46;8.07;;;2.65;;
79578;SDS011;69051;52.406;5.280;2023-06-14T03:44:16;7.57;;;3.05;;
79578;SDS011;69051;52.406;5.280;2023-06-14T03:46:47;11.18;;;2.92;;
79578;SDS011;69051;52.406;5.280;2023-06-14T03:49:14;14.13;;;3.20;;
79578;SDS011;69051;52.406;5.280;2023-06-14T03:51:42;8.18;;;2.70;;
79578;SDS011;69051;52.406;5.280;2023-06-14T03:54:08;8.40;;;3.10;;
79578;SDS011;69051;52.406;5.280;2023-06-14T03:56:38;6.18;;;2.70;;
79578;SDS011;69051;52.406;5.280;2023-06-14T03:59:04;11.50;;;3.00;;
79578;SDS011;69051;52.406;5.280;2023-06-14T04:01:31;15.50;;;3.45;;
79578;SDS011;69051;52.406;5.280;2023-06-14T04:03:59;11.55;;;2.80;;
79578;SDS011;69051;52.406;5.280;2023-06-14T04:06:26;9.27;;;2.78;;
79578;SDS011;69051;52.406;5.280;2023-06-14T04:11:28;13.05;;;2.88;;
79578;SDS011;69051;52.406;5.280;2023-06-14T04:13:54;6.30;;;2.65;;
79578;SDS011;69051;52.406;5.280;2023-06-14T04:16:22;10.57;;;2.60;;
79578;SDS011;69051;52.406;5.280;2023-06-14T04:18:49;6.15;;;2.85;;
79578;SDS011;69051;52.406;5.280;2023-06-14T04:21:18;19.23;;;3.00;;
79578;SDS011;69051;52.406;5.280;2023-06-14T04:23:44;14.40;;;2.78;;
79578;SDS011;69051;52.406;5.280;2023-06-14T04:26:11;11.27;;;3.00;;
79578;SDS011;69051;52.406;5.280;2023-06-14T04:28:37;12.95;;;3.45;;
79578;SDS011;69051;52.406;5.280;2023-06-14T04:31:07;8.02;;;2.75;;
79578;SDS011;69051;52.406;5.280;2023-06-14T04:33:37;9.15;;;2.67;;
79578;SDS011;69051;52.406;5.280;2023-06-14T04:36:12;7.13;;;2.80;;
79578;SDS011;69051;52.406;5.280;2023-06-14T04:38:39;12.32;;;2.88;;
79578;SDS011;69051;52.406;5.280;2023-06-14T04:41:06;7.32;;;2.53;;
79578;SDS011;69051;52.406;5.280;2023-06-14T04:43:32;10.55;;;2.63;;
79578;SDS011;69051;52.406;5.280;2023-06-14T04:46:04;7.00;;;2.92;;
79578;SDS011;69051;52.406;5.280;2023-06-14T04:48:32;8.55;;;2.90;;
79578;SDS011;69051;52.406;5.280;2023-06-14T04:50:58;9.48;;;3.10;;
79578;SDS011;69051;52.406;5.280;2023-06-14T04:53:25;8.32;;;3.17;;
79578;SDS011;69051;52.406;5.280;2023-06-14T04:55:54;9.63;;;2.63;;
79578;SDS011;69051;52.406;5.280;2023-06-14T04:58:21;14.55;;;3.13;;
79578;SDS011;69051;52.406;5.280;2023-06-14T05:00:48;6.72;;;2.80;;
79578;SDS011;69051;52.406;5.280;2023-06-14T05:03:14;10.88;;;3.00;;
79578;SDS011;69051;52.406;5.280;2023-06-14T05:05:41;6.70;;;2.22;;
79578;SDS011;69051;52.406;5.280;2023-06-14T05:08:07;6.95;;;2.72;;
79578;SDS011;69051;52.406;5.280;2023-06-14T05:10:35;7.82;;;3.03;;
79578;SDS011;69051;52.406;5.280;2023-06-14T05:13:02;12.20;;;3.05;;
79578;SDS011;69051;52.406;5.280;2023-06-14T05:15:29;6.82;;;3.00;;
79578;SDS011;69051;52.406;5.280;2023-06-14T05:17:55;7.85;;;3.20;;
79578;SDS011;69051;52.406;5.280;2023-06-14T05:20:23;6.20;;;2.67;;
79578;SDS011;69051;52.406;5.280;2023-06-14T05:22:53;10.05;;;2.75;;
79578;SDS011;69051;52.406;5.280;2023-06-14T05:25:20;8.48;;;3.95;;
79578;SDS011;69051;52.406;5.280;2023-06-14T05:27:47;7.38;;;2.80;;
79578;SDS011;69051;52.406;5.280;2023-06-14T05:30:14;10.43;;;3.45;;
79578;SDS011;69051;52.406;5.280;2023-06-14T05:32:41;7.78;;;2.78;;
79578;SDS011;69051;52.406;5.280;2023-06-14T05:35:08;10.68;;;3.00;;
79578;SDS011;69051;52.406;5.280;2023-06-14T05:37:34;9.75;;;3.20;;
79578;SDS011;69051;52.406;5.280;2023-06-14T05:40:01;8.70;;;2.92;;
79578;SDS011;69051;52.406;5.280;2023-06-14T05:42:31;8.98;;;3.38;;
79578;SDS011;69051;52.406;5.280;2023-06-14T05:44:58;7.68;;;3.20;;
79578;SDS011;69051;52.406;5.280;2023-06-14T05:47:24;6.13;;;3.03;;
79578;SDS011;69051;52.406;5.280;2023-06-14T05:49:52;10.63;;;3.53;;
79578;SDS011;69051;52.406;5.280;2023-06-14T05:52:18;9.00;;;3.17;;
79578;SDS011;69051;52.406;5.280;2023-06-14T05:54:45;9.00;;;3.28;;
79578;SDS011;69051;52.406;5.280;2023-06-14T05:57:12;9.07;;;3.20;;
79578;SDS011;69051;52.406;5.280;2023-06-14T05:59:38;11.23;;;3.58;;
79578;SDS011;69051;52.406;5.280;2023-06-14T06:02:05;8.95;;;3.35;;
79578;SDS011;69051;52.406;5.280;2023-06-14T06:04:31;5.78;;;2.90;;
79578;SDS011;69051;52.406;5.280;2023-06-14T06:06:58;8.20;;;3.10;;
79578;SDS011;69051;52.406;5.280;2023-06-14T06:09:25;13.52;;;3.60;;
79578;SDS011;69051;52.406;5.280;2023-06-14T06:11:51;9.27;;;3.08;;
79578;SDS011;69051;52.406;5.280;2023-06-14T06:14:19;10.57;;;3.60;;
79578;SDS011;69051;52.406;5.280;2023-06-14T06:16:46;12.93;;;3.80;;
79578;SDS011;69051;52.406;5.280;2023-06-14T06:19:12;7.68;;;2.97;;
79578;SDS011;69051;52.406;5.280;2023-06-14T06:21:39;11.05;;;3.50;;
79578;SDS011;69051;52.406;5.280;2023-06-14T06:24:06;12.65;;;3.35;;
79578;SDS011;69051;52.406;5.280;2023-06-14T06:26:32;10.43;;;3.03;;
79578;SDS011;69051;52.406;5.280;2023-06-14T06:28:59;9.23;;;3.30;;
79578;SDS011;69051;52.406;5.280;2023-06-14T06:31:25;11.73;;;3.72;;
79578;SDS011;69051;52.406;5.280;2023-06-14T06:33:54;8.18;;;3.13;;
79578;SDS011;69051;52.406;5.280;2023-06-14T06:36:20;11.18;;;3.60;;
79578;SDS011;69051;52.406;5.280;2023-06-14T06:38:47;7.68;;;3.30;;
79578;SDS011;69051;52.406;5.280;2023-06-14T06:41:14;9.35;;;4.35;;
79578;SDS011;69051;52.406;5.280;2023-06-14T06:43:40;8.35;;;3.30;;
79578;SDS011;69051;52.406;5.280;2023-06-14T06:46:07;11.80;;;3.70;;
79578;SDS011;69051;52.406;5.280;2023-06-14T06:48:34;9.30;;;3.53;;
79578;SDS011;69051;52.406;5.280;2023-06-14T06:51:00;11.82;;;3.42;;
79578;SDS011;69051;52.406;5.280;2023-06-14T06:53:27;6.72;;;3.33;;
79578;SDS011;69051;52.406;5.280;2023-06-14T06:56:06;12.93;;;3.50;;
79578;SDS011;69051;52.406;5.280;2023-06-14T06:58:33;9.40;;;3.05;;
79578;SDS011;69051;52.406;5.280;2023-06-14T07:01:00;14.50;;;3.55;;
79578;SDS011;69051;52.406;5.280;2023-06-14T07:03:26;9.85;;;2.80;;
79578;SDS011;69051;52.406;5.280;2023-06-14T07:05:53;11.15;;;3.83;;
79578;SDS011;69051;52.406;5.280;2023-06-14T07:08:19;7.93;;;3.47;;
79578;SDS011;69051;52.406;5.280;2023-06-14T07:10:46;6.85;;;3.03;;
79578;SDS011;69051;52.406;5.280;2023-06-14T07:13:12;15.00;;;3.38;;
79578;SDS011;69051;52.406;5.280;2023-06-14T07:15:40;8.55;;;3.67;;
79578;SDS011;69051;52.406;5.280;2023-06-14T07:18:06;11.85;;;3.25;;
79578;SDS011;69051;52.406;5.280;2023-06-14T07:20:34;6.22;;;3.03;;
79578;SDS011;69051;52.406;5.280;2023-06-14T07:23:00;7.95;;;2.53;;
79578;SDS011;69051;52.406;5.280;2023-06-14T07:25:27;9.90;;;3.47;;
79578;SDS011;69051;52.406;5.280;2023-06-14T07:27:53;6.95;;;3.10;;
79578;SDS011;69051;52.406;5.280;2023-06-14T07:30:20;8.25;;;2.80;;
79578;SDS011;69051;52.406;5.280;2023-06-14T07:32:48;7.38;;;2.67;;
79578;SDS011;69051;52.406;5.280;2023-06-14T07:35:15;6.55;;;2.95;;
79578;SDS011;69051;52.406;5.280;2023-06-14T07:37:42;6.88;;;2.72;;
79578;SDS011;69051;52.406;5.280;2023-06-14T07:40:09;7.05;;;2.92;;
79578;SDS011;69051;52.406;5.280;2023-06-14T07:42:36;10.68;;;3.13;;
79578;SDS011;69051;52.406;5.280;2023-06-14T07:45:03;7.30;;;3.05;;
79578;SDS011;69051;52.406;5.280;2023-06-14T07:47:30;8.95;;;2.85;;
79578;SDS011;69051;52.406;5.280;2023-06-14T07:49:57;6.70;;;2.78;;
79578;SDS011;69051;52.406;5.280;2023-06-14T07:52:24;8.10;;;3.00;;
79578;SDS011;69051;52.406;5.280;2023-06-14T07:54:51;7.85;;;2.80;;
79578;SDS011;69051;52.406;5.280;2023-06-14T07:57:17;5.70;;;2.60;;
79578;SDS011;69051;52.406;5.280;2023-06-14T07:59:46;8.73;;;2.75;;
79578;SDS011;69051;52.406;5.280;2023-06-14T08:02:12;6.43;;;2.88;;
79578;SDS011;69051;52.406;5.280;2023-06-14T08:04:39;6.18;;;2.80;;
79578;SDS011;69051;52.406;5.280;2023-06-14T08:07:05;8.70;;;2.50;;
79578;SDS011;69051;52.406;5.280;2023-06-14T08:09:33;7.28;;;2.63;;
79578;SDS011;69051;52.406;5.280;2023-06-14T08:11:59;6.63;;;2.40;;
79578;SDS011;69051;52.406;5.280;2023-06-14T08:14:26;10.68;;;2.35;;
79578;SDS011;69051;52.406;5.280;2023-06-14T08:16:52;8.13;;;2.40;;
79578;SDS011;69051;52.406;5.280;2023-06-14T08:19:19;11.48;;;2.70;;
79578;SDS011;69051;52.406;5.280;2023-06-14T08:21:46;6.80;;;2.30;;
79578;SDS011;69051;52.406;5.280;2023-06-14T08:24:13;8.52;;;2.53;;
79578;SDS011;69051;52.406;5.280;2023-06-14T08:26:40;9.55;;;2.20;;
79578;SDS011;69051;52.406;5.280;2023-06-14T08:29:06;8.00;;;2.03;;
79578;SDS011;69051;52.406;5.280;2023-06-14T08:31:34;7.22;;;2.53;;
79578;SDS011;69051;52.406;5.280;2023-06-14T08:34:00;8.90;;;2.50;;
79578;SDS011;69051;52.406;5.280;2023-06-14T08:36:29;7.03;;;2.20;;
79578;SDS011;69051;52.406;5.280;2023-06-14T08:38:56;7.80;;;2.00;;
79578;SDS011;69051;52.406;5.280;2023-06-14T08:41:23;8.77;;;2.20;;
79578;SDS011;69051;52.406;5.280;2023-06-14T08:43:51;7.25;;;2.22;;
79578;SDS011;69051;52.406;5.280;2023-06-14T08:46:18;11.07;;;2.47;;
79578;SDS011;69051;52.406;5.280;2023-06-14T08:48:48;8.02;;;2.10;;
79578;SDS011;69051;52.406;5.280;2023-06-14T08:51:19;5.20;;;1.63;;
79578;SDS011;69051;52.406;5.280;2023-06-14T08:53:49;7.95;;;2.00;;
79578;SDS011;69051;52.406;5.280;2023-06-14T08:56:19;6.65;;;2.10;;
79578;SDS011;69051;52.406;5.280;2023-06-14T08:58:46;12.52;;;2.20;;
79578;SDS011;69051;52.406;5.280;2023-06-14T09:01:14;9.73;;;2.00;;
79578;SDS011;69051;52.406;5.280;2023-06-14T09:03:43;5.25;;;1.80;;
79578;SDS011;69051;52.406;5.280;2023-06-14T09:06:11;6.30;;;2.13;;
79578;SDS011;69051;52.406;5.280;2023-06-14T09:08:43;5.40;;;2.13;;
79578;SDS011;69051;52.406;5.280;2023-06-14T09:11:11;10.27;;;2.38;;
79578;SDS011;69051;52.406;5.280;2023-06-14T09:13:38;3.78;;;1.60;;
79578;SDS011;69051;52.406;5.280;2023-06-14T09:16:06;6.35;;;2.53;;
79578;SDS011;69051;52.406;5.280;2023-06-14T09:18:43;6.07;;;1.92;;
79578;SDS011;69051;52.406;5.280;2023-06-14T09:21:11;4.50;;;1.65;;
79578;SDS011;69051;52.406;5.280;2023-06-14T09:23:41;15.73;;;2.42;;
79578;SDS011;69051;52.406;5.280;2023-06-14T09:26:10;5.78;;;1.80;;
79578;SDS011;69051;52.406;5.280;2023-06-14T09:28:42;5.50;;;1.92;;
79578;SDS011;69051;52.406;5.280;2023-06-14T09:31:13;13.90;;;2.10;;
79578;SDS011;69051;52.406;5.280;2023-06-14T09:33:41;6.05;;;1.77;;
79578;SDS011;69051;52.406;5.280;2023-06-14T09:36:17;5.25;;;1.85;;
79578;SDS011;69051;52.406;5.280;2023-06-14T09:38:55;5.20;;;2.15;;
79578;SDS011;69051;52.406;5.280;2023-06-14T09:44:11;5.68;;;2.03;;
79578;SDS011;69051;52.406;5.280;2023-06-14T09:46:46;7.40;;;1.75;;
79578;SDS011;69051;52.406;5.280;2023-06-14T09:49:13;4.07;;;1.73;;
79578;SDS011;69051;52.406;5.280;2023-06-14T09:51:42;6.95;;;2.00;;
79578;SDS011;69051;52.406;5.280;2023-06-14T09:54:14;6.05;;;1.90;;
79578;SDS011;69051;52.406;5.280;2023-06-14T09:56:44;5.97;;;1.83;;
79578;SDS011;69051;52.406;5.280;2023-06-14T09:59:12;6.72;;;1.95;;
79578;SDS011;69051;52.406;5.280;2023-06-14T10:01:42;6.97;;;2.03;;
79578;SDS011;69051;52.406;5.280;2023-06-14T10:04:10;6.10;;;2.03;;
79578;SDS011;69051;52.406;5.280;2023-06-14T10:06:39;4.43;;;1.95;;
79578;SDS011;69051;52.406;5.280;2023-06-14T10:09:10;6.53;;;2.20;;
79578;SDS011;69051;52.406;5.280;2023-06-14T10:11:36;5.55;;;1.85;;
79578;SDS011;69051;52.406;5.280;2023-06-14T10:14:06;4.90;;;2.13;;
79578;SDS011;69051;52.406;5.280;2023-06-14T10:16:54;4.50;;;1.90;;
79578;SDS011;69051;52.406;5.280;2023-06-14T10:19:27;3.90;;;1.83;;
79578;SDS011;69051;52.406;5.280;2023-06-14T10:24:49;6.80;;;1.85;;
79578;SDS011;69051;52.406;5.280;2023-06-14T10:27:16;4.80;;;1.73;;
79578;SDS011;69051;52.406;5.280;2023-06-14T10:32:22;10.63;;;2.10;;
79578;SDS011;69051;52.406;5.280;2023-06-14T10:34:55;4.70;;;1.80;;
79578;SDS011;69051;52.406;5.280;2023-06-14T10:37:26;6.20;;;1.88;;
79578;SDS011;69051;52.406;5.280;2023-06-14T10:39:53;4.32;;;1.70;;
79578;SDS011;69051;52.406;5.280;2023-06-14T10:42:20;6.03;;;2.75;;
79578;SDS011;69051;52.406;5.280;2023-06-14T10:44:49;5.38;;;1.70;;
79578;SDS011;69051;52.406;5.280;2023-06-14T10:49:52;5.55;;;1.83;;
79578;SDS011;69051;52.406;5.280;2023-06-14T10:52:24;5.20;;;1.77;;
79578;SDS011;69051;52.406;5.280;2023-06-14T10:55:34;12.10;;;2.88;;
79578;SDS011;69051;52.406;5.280;2023-06-14T10:57:44;7.88;;;1.70;;
79578;SDS011;69051;52.406;5.280;2023-06-14T11:00:19;3.60;;;1.52;;
79578;SDS011;69051;52.406;5.280;2023-06-14T11:05:58;3.33;;;1.52;;
79578;SDS011;69051;52.406;5.280;2023-06-14T11:08:46;5.75;;;1.77;;
79578;SDS011;69051;52.406;5.280;2023-06-14T11:11:23;3.60;;;1.50;;
79578;SDS011;69051;52.406;5.280;2023-06-14T11:13:51;5.20;;;1.67;;
79578;SDS011;69051;52.406;5.280;2023-06-14T11:16:20;5.25;;;1.70;;
79578;SDS011;69051;52.406;5.280;2023-06-14T11:18:52;9.07;;;1.67;;
79578;SDS011;69051;52.406;5.280;2023-06-14T11:21:18;5.93;;;1.88;;
79578;SDS011;69051;52.406;5.280;2023-06-14T11:23:49;5.60;;;1.75;;
79578;SDS011;69051;52.406;5.280;2023-06-14T11:26:23;6.43;;;1.70;;
79578;SDS011;69051;52.406;5.280;2023-06-14T11:29:01;6.32;;;1.63;;
79578;SDS011;69051;52.406;5.280;2023-06-14T11:31:27;4.43;;;1.65;;
79578;SDS011;69051;52.406;5.280;2023-06-14T11:33:56;5.25;;;1.70;;
79578;SDS011;69051;52.406;5.280;2023-06-14T11:36:23;3.72;;;1.60;;
79578;SDS011;69051;52.406;5.280;2023-06-14T11:41:31;7.28;;;2.05;;
79578;SDS011;69051;52.406;5.280;2023-06-14T11:44:05;4.10;;;1.80;;
79578;SDS011;69051;52.406;5.280;2023-06-14T11:46:32;7.32;;;1.58;;
79578;SDS011;69051;52.406;5.280;2023-06-14T11:48:59;9.07;;;1.80;;
79578;SDS011;69051;52.406;5.280;2023-06-14T11:51:32;5.63;;;1.65;;
79578;SDS011;69051;52.406;5.280;2023-06-14T11:54:03;5.35;;;1.60;;
79578;SDS011;69051;52.406;5.280;2023-06-14T11:56:30;10.43;;;2.13;;
79578;SDS011;69051;52.406;5.280;2023-06-14T11:58:58;8.88;;;2.50;;
79578;SDS011;69051;52.406;5.280;2023-06-14T12:01:25;8.20;;;2.00;;
79578;SDS011;69051;52.406;5.280;2023-06-14T12:03:53;4.95;;;1.80;;
79578;SDS011;69051;52.406;5.280;2023-06-14T12:06:28;8.68;;;2.00;;
79578;SDS011;69051;52.406;5.280;2023-06-14T12:08:59;4.65;;;1.60;;
79578;SDS011;69051;52.406;5.280;2023-06-14T12:11:31;6.88;;;2.20;;
79578;SDS011;69051;52.406;5.280;2023-06-14T12:13:58;6.93;;;1.90;;
79578;SDS011;69051;52.406;5.280;2023-06-14T12:16:29;7.13;;;1.70;;
79578;SDS011;69051;52.406;5.280;2023-06-14T12:18:56;6.85;;;1.85;;
79578;SDS011;69051;52.406;5.280;2023-06-14T12:21:26;6.70;;;1.90;;
79578;SDS011;69051;52.406;5.280;2023-06-14T12:23:54;7.03;;;1.80;;
79578;SDS011;69051;52.406;5.280;2023-06-14T12:26:21;4.63;;;1.98;;
79578;SDS011;69051;52.406;5.280;2023-06-14T12:28:47;8.02;;;2.58;;
79578;SDS011;69051;52.406;5.280;2023-06-14T12:31:15;2.80;;;1.52;;
79578;SDS011;69051;52.406;5.280;2023-06-14T12:33:42;5.88;;;1.65;;
79578;SDS011;69051;52.406;5.280;2023-06-14T12:36:09;6.10;;;1.95;;
79578;SDS011;69051;52.406;5.280;2023-06-14T12:38:37;4.75;;;1.65;;
79578;SDS011;69051;52.406;5.280;2023-06-14T12:41:03;4.82;;;1.70;;
79578;SDS011;69051;52.406;5.280;2023-06-14T12:43:30;5.00;;;1.65;;
79578;SDS011;69051;52.406;5.280;2023-06-14T12:45:57;5.30;;;1.75;;
79578;SDS011;69051;52.406;5.280;2023-06-14T12:48:24;4.35;;;1.80;;
79578;SDS011;69051;52.406;5.280;2023-06-14T12:50:50;4.90;;;1.70;;
79578;SDS011;69051;52.406;5.280;2023-06-14T12:53:17;5.05;;;1.92;;
79578;SDS011;69051;52.406;5.280;2023-06-14T12:55:43;8.25;;;1.98;;
79578;SDS011;69051;52.406;5.280;2023-06-14T12:58:10;3.85;;;1.40;;
79578;SDS011;69051;52.406;5.280;2023-06-14T13:00:38;6.70;;;1.80;;
79578;SDS011;69051;52.406;5.280;2023-06-14T13:03:05;5.40;;;1.65;;
79578;SDS011;69051;52.406;5.280;2023-06-14T13:05:32;7.15;;;1.70;;
79578;SDS011;69051;52.406;5.280;2023-06-14T13:07:59;10.38;;;2.30;;
79578;SDS011;69051;52.406;5.280;2023-06-14T13:10:26;4.97;;;1.80;;
79578;SDS011;69051;52.406;5.280;2023-06-14T13:12:53;8.45;;;2.20;;
79578;SDS011;69051;52.406;5.280;2023-06-14T13:15:20;9.30;;;2.13;;
79578;SDS011;69051;52.406;5.280;2023-06-14T13:17:46;8.52;;;2.20;;
79578;SDS011;69051;52.406;5.280;2023-06-14T13:20:15;5.88;;;2.00;;
79578;SDS011;69051;52.406;5.280;2023-06-14T13:22:45;5.43;;;1.48;;
79578;SDS011;69051;52.406;5.280;2023-06-14T13:25:12;5.03;;;1.95;;
79578;SDS011;69051;52.406;5.280;2023-06-14T13:27:38;7.28;;;1.80;;
79578;SDS011;69051;52.406;5.280;2023-06-14T13:30:05;8.77;;;1.60;;
79578;SDS011;69051;52.406;5.280;2023-06-14T13:32:32;5.93;;;1.95;;
79578;SDS011;69051;52.406;5.280;2023-06-14T13:34:59;6.85;;;1.80;;
79578;SDS011;69051;52.406;5.280;2023-06-14T13:37:26;7.75;;;1.70;;
79578;SDS011;69051;52.406;5.280;2023-06-14T13:39:52;4.88;;;1.67;;
79578;SDS011;69051;52.406;5.280;2023-06-14T13:42:19;5.75;;;1.88;;
79578;SDS011;69051;52.406;5.280;2023-06-14T13:44:46;5.22;;;1.60;;
79578;SDS011;69051;52.406;5.280;2023-06-14T13:47:12;4.03;;;1.70;;
79578;SDS011;69051;52.406;5.280;2023-06-14T13:49:39;5.35;;;1.63;;
79578;SDS011;69051;52.406;5.280;2023-06-14T13:52:05;3.80;;;1.58;;
79578;SDS011;69051;52.406;5.280;2023-06-14T13:54:32;3.78;;;1.60;;
79578;SDS011;69051;52.406;5.280;2023-06-14T13:56:59;5.00;;;1.50;;
79578;SDS011;69051;52.406;5.280;2023-06-14T13:59:25;9.02;;;2.25;;
79578;SDS011;69051;52.406;5.280;2023-06-14T14:01:52;8.95;;;1.83;;
79578;SDS011;69051;52.406;5.280;2023-06-14T14:04:19;5.68;;;1.75;;
79578;SDS011;69051;52.406;5.280;2023-06-14T14:06:46;8.20;;;1.55;;
79578;SDS011;69051;52.406;5.280;2023-06-14T14:09:14;5.70;;;1.80;;
79578;SDS011;69051;52.406;5.280;2023-06-14T14:11:41;5.15;;;1.70;;
79578;SDS011;69051;52.406;5.280;2023-06-14T14:14:08;5.47;;;1.95;;
79578;SDS011;69051;52.406;5.280;2023-06-14T14:16:36;5.68;;;1.67;;
79578;SDS011;69051;52.406;5.280;2023-06-14T14:19:06;4.68;;;1.90;;
79578;SDS011;69051;52.406;5.280;2023-06-14T14:21:33;6.40;;;1.50;;
79578;SDS011;69051;52.406;5.280;2023-06-14T14:23:59;9.93;;;1.92;;
79578;SDS011;69051;52.406;5.280;2023-06-14T14:26:26;10.55;;;1.77;;
79578;SDS011;69051;52.406;5.280;2023-06-14T14:28:53;4.68;;;1.77;;
79578;SDS011;69051;52.406;5.280;2023-06-14T14:31:19;5.28;;;1.65;;
79578;SDS011;69051;52.406;5.280;2023-06-14T14:33:46;4.50;;;1.40;;
79578;SDS011;69051;52.406;5.280;2023-06-14T14:36:12;5.60;;;1.50;;
79578;SDS011;69051;52.406;5.280;2023-06-14T14:38:39;5.93;;;1.55;;
79578;SDS011;69051;52.406;5.280;2023-06-14T14:41:06;33.47;;;5.70;;
79578;SDS011;69051;52.406;5.280;2023-06-14T14:43:32;10.35;;;2.42;;
79578;SDS011;69051;52.406;5.280;2023-06-14T14:45:59;6.20;;;1.70;;
79578;SDS011;69051;52.406;5.280;2023-06-14T14:48:26;6.10;;;1.75;;
79578;SDS011;69051;52.406;5.280;2023-06-14T14:50:52;4.75;;;1.52;;
79578;SDS011;69051;52.406;5.280;2023-06-14T14:53:19;3.83;;;1.60;;
79578;SDS011;69051;52.406;5.280;2023-06-14T14:55:45;5.35;;;1.63;;
79578;SDS011;69051;52.406;5.280;2023-06-14T14:58:13;5.30;;;1.65;;
79578;SDS011;69051;52.406;5.280;2023-06-14T15:00:40;6.38;;;1.65;;
79578;SDS011;69051;52.406;5.280;2023-06-14T15:03:07;4.85;;;1.80;;
79578;SDS011;69051;52.406;5.280;2023-06-14T15:05:33;7.78;;;1.55;;
79578;SDS011;69051;52.406;5.280;2023-06-14T15:08:00;7.75;;;1.70;;
79578;SDS011;69051;52.406;5.280;2023-06-14T15:10:26;7.20;;;1.60;;